createdAt,value
2018-09-25T00:02:29.979Z,99.90
2018-09-25T00:05:03.493Z,99.90
2018-09-25T00:07:37.030Z,99.90
2018-09-25T00:10:10.530Z,99.90
2018-09-25T00:12:44.155Z,99.90
2018-09-25T00:15:17.721Z,99.90
2018-09-25T00:17:51.242Z,99.90
2018-09-25T00:20:24.804Z,99.90
2018-09-25T00:22:58.347Z,99.90
2018-09-25T00:25:32.053Z,99.90
2018-09-25T00:28:05.686Z,99.90
2018-09-25T00:30:39.283Z,99.90
2018-09-25T00:33:12.942Z,99.90
2018-09-25T00:35:46.615Z,99.90
2018-09-25T00:38:20.074Z,99.90
2018-09-25T00:40:53.651Z,99.90
2018-09-25T00:43:27.138Z,99.90
2018-09-25T00:46:00.813Z,99.90
2018-09-25T00:48:34.399Z,99.90
2018-09-25T00:51:08.007Z,99.90
2018-09-25T00:53:41.706Z,99.90
2018-09-25T00:56:15.050Z,99.90
2018-09-25T00:58:48.681Z,99.90
2018-09-25T01:01:22.291Z,99.90
2018-09-25T01:03:56.825Z,99.90
2018-09-25T01:06:30.278Z,99.90
2018-09-25T01:09:03.618Z,99.90
2018-09-25T01:11:37.250Z,99.90
2018-09-25T01:14:11.895Z,99.90
2018-09-25T01:16:45.527Z,99.90
2018-09-25T01:19:19.031Z,99.90
2018-09-25T01:21:52.488Z,99.90
2018-09-25T01:24:25.868Z,99.90
2018-09-25T01:26:59.380Z,99.90
2018-09-25T01:29:32.830Z,99.90
2018-09-25T01:32:06.461Z,99.90
2018-09-25T01:34:39.876Z,99.90
2018-09-25T01:37:13.695Z,99.90
2018-09-25T01:39:47.383Z,99.90
2018-09-25T01:42:20.839Z,99.90
2018-09-25T01:44:54.449Z,99.90
2018-09-25T01:47:27.938Z,99.90
2018-09-25T01:50:01.343Z,99.90
2018-09-25T01:52:35.004Z,99.90
2018-09-25T01:55:08.639Z,99.90
2018-09-25T01:57:42.135Z,99.90
2018-09-25T02:00:17.435Z,99.90
2018-09-25T02:02:51.067Z,99.90
2018-09-25T02:05:24.548Z,99.90
2018-09-25T02:07:58.179Z,99.90
2018-09-25T02:10:31.752Z,99.90
2018-09-25T02:13:05.221Z,99.90
2018-09-25T02:15:38.692Z,99.90
2018-09-25T02:18:12.313Z,99.90
2018-09-25T02:20:45.923Z,99.90
2018-09-25T02:23:19.246Z,99.90
2018-09-25T02:25:52.863Z,99.90
2018-09-25T02:28:26.542Z,99.90
2018-09-25T02:30:59.917Z,99.90
2018-09-25T02:33:33.449Z,99.90
2018-09-25T02:36:06.835Z,99.90
2018-09-25T02:38:40.450Z,99.90
2018-09-25T02:41:13.986Z,99.90
2018-09-25T02:43:47.495Z,99.90
2018-09-25T02:46:21.169Z,99.90
2018-09-25T02:48:54.634Z,99.90
2018-09-25T02:51:27.998Z,99.90
2018-09-25T02:54:01.623Z,99.90
2018-09-25T02:56:35.104Z,99.90
2018-09-25T02:59:08.792Z,99.90
2018-09-25T03:01:42.268Z,99.90
2018-09-25T03:04:15.596Z,99.90
2018-09-25T03:06:49.094Z,99.90
2018-09-25T03:09:22.719Z,99.90
2018-09-25T03:11:56.297Z,99.90
2018-09-25T03:14:29.966Z,99.90
2018-09-25T03:17:03.351Z,99.90
2018-09-25T03:19:37.038Z,99.90
2018-09-25T03:22:10.539Z,99.90
2018-09-25T03:24:44.240Z,99.90
2018-09-25T03:27:17.678Z,99.90
2018-09-25T03:29:51.283Z,99.90
2018-09-25T03:32:24.759Z,99.90
2018-09-25T03:34:58.251Z,99.90
2018-09-25T03:37:31.823Z,99.90
2018-09-25T03:40:05.297Z,99.90
2018-09-25T03:42:38.723Z,99.90
2018-09-25T03:45:12.348Z,99.90
2018-09-25T03:47:45.969Z,99.90
2018-09-25T03:50:19.537Z,99.90
2018-09-25T03:52:53.172Z,99.90
2018-09-25T03:55:26.664Z,99.90
2018-09-25T03:58:00.260Z,99.90
2018-09-25T04:00:33.778Z,99.90
2018-09-25T04:03:07.140Z,99.90
2018-09-25T04:05:40.737Z,99.90
2018-09-25T04:08:14.251Z,99.90
2018-09-25T04:10:47.796Z,99.90
2018-09-25T04:13:21.415Z,99.90
2018-09-25T04:15:55.046Z,99.90
2018-09-25T04:18:28.643Z,99.90
2018-09-25T04:21:02.138Z,99.90
2018-09-25T04:23:35.737Z,99.90
2018-09-25T04:26:09.227Z,99.90
2018-09-25T04:28:42.844Z,99.90
2018-09-25T04:31:16.506Z,99.90
2018-09-25T04:33:50.156Z,99.90
2018-09-25T04:36:23.740Z,99.90
2018-09-25T04:38:57.411Z,99.90
2018-09-25T04:41:31.060Z,99.90
2018-09-25T04:44:04.595Z,99.90
2018-09-25T04:46:38.319Z,99.90
2018-09-25T04:49:11.841Z,99.90
2018-09-25T04:51:45.447Z,99.90
2018-09-25T04:54:19.098Z,99.90
2018-09-25T04:56:52.623Z,99.90
2018-09-25T04:59:25.988Z,99.90
2018-09-25T05:01:59.463Z,99.90
2018-09-25T05:04:32.931Z,99.90
2018-09-25T05:07:06.384Z,99.90
2018-09-25T05:09:39.997Z,99.90
2018-09-25T05:12:13.592Z,99.90
2018-09-25T05:14:47.188Z,99.90
2018-09-25T05:17:20.519Z,99.90
2018-09-25T05:19:54.022Z,99.90
2018-09-25T05:22:27.611Z,99.90
2018-09-25T05:25:01.129Z,99.90
2018-09-25T05:27:35.082Z,99.90
2018-09-25T05:30:08.600Z,99.90
2018-09-25T05:32:42.325Z,99.90
2018-09-25T05:35:15.987Z,99.90
2018-09-25T05:37:49.502Z,99.90
2018-09-25T05:40:23.000Z,99.90
2018-09-25T05:42:56.607Z,99.90
2018-09-25T05:45:30.219Z,99.90
2018-09-25T05:48:03.610Z,99.90
2018-09-25T05:50:37.212Z,99.90
2018-09-25T05:53:10.829Z,99.90
2018-09-25T05:55:44.429Z,99.90
2018-09-25T05:58:17.863Z,99.90
2018-09-25T06:00:51.442Z,99.90
2018-09-25T06:03:24.832Z,99.90
2018-09-25T06:05:58.503Z,99.90
2018-09-25T06:08:31.991Z,99.90
2018-09-25T06:11:05.534Z,99.90
2018-09-25T06:13:39.055Z,99.90
2018-09-25T06:16:12.678Z,99.90
2018-09-25T06:18:46.389Z,99.90
2018-09-25T06:21:19.912Z,99.90
2018-09-25T06:23:53.552Z,99.90
2018-09-25T06:26:26.965Z,99.90
2018-09-25T06:29:00.592Z,99.90
2018-09-25T06:31:34.151Z,99.90
2018-09-25T06:34:07.542Z,99.90
2018-09-25T06:36:41.249Z,99.90
2018-09-25T06:39:14.758Z,99.90
2018-09-25T06:41:48.270Z,99.90
2018-09-25T06:44:21.852Z,99.90
2018-09-25T06:46:55.488Z,99.90
2018-09-25T06:49:29.270Z,99.90
2018-09-25T06:52:02.744Z,99.90
2018-09-25T06:54:36.468Z,99.90
2018-09-25T06:57:10.006Z,99.90
2018-09-25T06:59:43.455Z,99.90
2018-09-25T07:02:16.985Z,99.90
2018-09-25T07:04:50.390Z,99.90
2018-09-25T07:07:23.955Z,99.90
2018-09-25T07:09:57.422Z,99.90
2018-09-25T07:12:31.045Z,99.90
2018-09-25T07:15:04.727Z,99.90
2018-09-25T07:17:38.395Z,99.90
2018-09-25T07:20:11.963Z,99.90
2018-09-25T07:22:45.497Z,99.90
2018-09-25T07:25:19.068Z,99.90
2018-09-25T07:27:52.604Z,99.90
2018-09-25T07:30:26.281Z,99.90
2018-09-25T07:32:59.900Z,99.90
2018-09-25T07:35:33.468Z,99.90
2018-09-25T07:38:07.028Z,99.90
2018-09-25T07:40:40.411Z,99.90
2018-09-25T07:43:14.066Z,99.90
2018-09-25T07:45:47.551Z,99.90
2018-09-25T07:48:21.121Z,99.90
2018-09-25T07:50:54.393Z,99.90
2018-09-25T07:53:27.968Z,99.90
2018-09-25T07:56:01.422Z,99.90
2018-09-25T07:58:35.069Z,99.90
2018-09-25T08:01:08.721Z,99.90
2018-09-25T08:03:42.315Z,99.90
2018-09-25T08:06:15.875Z,99.90
2018-09-25T08:08:49.222Z,99.90
2018-09-25T08:11:22.683Z,99.90
2018-09-25T08:13:56.038Z,99.90
2018-09-25T08:16:29.631Z,99.90
2018-09-25T08:19:03.089Z,99.90
2018-09-25T08:21:36.590Z,99.90
2018-09-25T08:24:10.169Z,99.90
2018-09-25T08:26:43.740Z,99.90
2018-09-25T08:29:17.347Z,99.90
2018-09-25T08:31:50.839Z,99.90
2018-09-25T08:34:24.420Z,99.90
2018-09-25T08:36:57.981Z,99.60
2018-09-25T08:39:31.527Z,99.90
2018-09-25T08:42:05.041Z,99.90
2018-09-25T08:44:38.585Z,99.80
2018-09-25T08:47:12.470Z,99.90
2018-09-25T08:49:45.951Z,99.80
2018-09-25T08:52:19.410Z,99.30
2018-09-25T08:54:52.978Z,97.40
2018-09-25T08:57:26.486Z,95.90
2018-09-25T08:59:59.935Z,96.00
2018-09-25T09:02:33.668Z,96.40
2018-09-25T09:05:07.138Z,95.10
2018-09-25T09:07:40.796Z,95.10
2018-09-25T09:10:14.238Z,90.30
2018-09-25T09:12:48.296Z,89.80
2018-09-25T09:15:22.823Z,90.00
2018-09-25T09:17:56.368Z,85.40
2018-09-25T09:20:29.819Z,82.90
2018-09-25T09:23:03.388Z,84.70
2018-09-25T09:25:36.852Z,78.40
2018-09-25T09:28:10.505Z,73.20
2018-09-25T09:30:43.911Z,71.10
2018-09-25T09:33:17.492Z,68.50
2018-09-25T09:35:51.152Z,69.20
2018-09-25T09:38:24.632Z,70.70
2018-09-25T09:40:58.153Z,71.30
2018-09-25T09:43:31.549Z,75.10
2018-09-25T09:46:05.169Z,71.50
2018-09-25T09:48:38.643Z,67.40
2018-09-25T09:51:12.295Z,63.30
2018-09-25T09:53:45.815Z,59.20
2018-09-25T09:56:19.412Z,63.60
2018-09-25T09:58:52.974Z,61.30
2018-09-25T10:01:26.550Z,64.80
2018-09-25T10:04:00.107Z,59.60
2018-09-25T10:06:33.619Z,60.20
2018-09-25T10:09:07.073Z,58.40
2018-09-25T10:11:40.593Z,57.90
2018-09-25T10:14:14.320Z,57.60
2018-09-25T10:16:50.109Z,57.60
2018-09-25T10:19:23.871Z,59.40
2018-09-25T10:21:57.528Z,55.50
2018-09-25T10:24:31.171Z,54.90
2018-09-25T10:27:04.679Z,55.70
2018-09-25T10:29:38.300Z,56.60
2018-09-25T10:32:14.532Z,56.80
2018-09-25T10:34:48.221Z,55.50
2018-09-25T10:37:21.869Z,56.00
2018-09-25T10:39:55.524Z,53.30
2018-09-25T10:42:30.374Z,53.60
2018-09-25T10:45:04.075Z,50.20
2018-09-25T10:47:37.551Z,51.60
2018-09-25T10:50:11.200Z,51.70
2018-09-25T10:52:44.489Z,53.60
2018-09-25T10:55:19.126Z,53.50
2018-09-25T10:57:52.779Z,53.10
2018-09-25T11:00:30.265Z,50.80
2018-09-25T11:03:07.260Z,51.00
2018-09-25T11:05:40.938Z,49.50
2018-09-25T11:08:14.418Z,53.70
2018-09-25T11:10:48.837Z,51.10
2018-09-25T11:13:22.451Z,50.50
2018-09-25T11:15:56.003Z,53.10
2018-09-25T11:18:29.670Z,52.60
2018-09-25T11:21:03.376Z,50.80
2018-09-25T11:23:39.331Z,49.70
2018-09-25T11:26:14.016Z,50.20
2018-09-25T11:28:47.532Z,50.10
2018-09-25T11:31:21.985Z,51.90
2018-09-25T11:33:57.075Z,52.30
2018-09-25T11:36:30.615Z,52.90
2018-09-25T11:39:04.118Z,54.00
2018-09-25T11:41:37.774Z,51.70
2018-09-25T11:44:13.344Z,52.30
2018-09-25T11:46:46.970Z,51.80
2018-09-25T11:49:20.440Z,53.20
2018-09-25T11:51:54.108Z,54.50
2018-09-25T11:54:27.602Z,53.80
2018-09-25T11:57:01.217Z,54.40
2018-09-25T11:59:34.698Z,51.90
2018-09-25T12:02:08.080Z,54.20
2018-09-25T12:04:41.439Z,51.20
2018-09-25T12:07:14.915Z,50.00
2018-09-25T12:09:48.508Z,51.70
2018-09-25T12:12:21.851Z,52.10
2018-09-25T12:14:55.615Z,52.20
2018-09-25T12:17:29.172Z,50.30
2018-09-25T12:20:02.927Z,50.60
2018-09-25T12:22:36.406Z,53.20
2018-09-25T12:25:09.865Z,54.90
2018-09-25T12:27:43.487Z,55.00
2018-09-25T12:30:17.123Z,52.60
2018-09-25T12:32:50.927Z,53.60
2018-09-25T12:35:24.727Z,52.80
2018-09-25T12:37:58.190Z,53.80
2018-09-25T12:40:31.820Z,52.70
2018-09-25T12:43:05.276Z,53.20
2018-09-25T12:45:38.968Z,52.30
2018-09-25T12:48:12.643Z,50.80
2018-09-25T12:50:46.312Z,51.50
2018-09-25T12:53:19.854Z,52.20
2018-09-25T12:55:53.299Z,50.80
2018-09-25T12:58:26.994Z,51.90
2018-09-25T13:01:00.411Z,51.90
2018-09-25T13:03:34.019Z,50.50
2018-09-25T13:06:07.635Z,50.30
2018-09-25T13:08:41.136Z,51.60
2018-09-25T13:11:14.555Z,49.80
2018-09-25T13:13:48.183Z,50.70
2018-09-25T13:16:21.671Z,49.60
2018-09-25T13:18:55.264Z,50.00
2018-09-25T13:21:28.705Z,52.10
2018-09-25T13:24:02.359Z,49.80
2018-09-25T13:26:35.853Z,49.10
2018-09-25T13:29:09.464Z,50.70
2018-09-25T13:31:43.088Z,50.20
2018-09-25T13:34:16.770Z,50.00
2018-09-25T13:36:50.238Z,50.40
2018-09-25T13:39:23.807Z,50.80
2018-09-25T13:41:57.280Z,52.00
2018-09-25T13:44:30.866Z,51.10
2018-09-25T13:47:04.493Z,50.40
2018-09-25T13:49:37.940Z,51.30
2018-09-25T13:52:11.653Z,50.00
2018-09-25T13:54:45.252Z,52.60
2018-09-25T13:57:18.813Z,50.80
2018-09-25T13:59:52.205Z,51.00
2018-09-25T14:02:25.620Z,51.20
2018-09-25T14:04:59.089Z,52.60
2018-09-25T14:07:32.462Z,53.00
2018-09-25T14:10:06.093Z,51.40
2018-09-25T14:12:39.726Z,52.80
2018-09-25T14:15:13.228Z,53.30
2018-09-25T14:17:46.758Z,53.40
2018-09-25T14:20:20.434Z,54.50
2018-09-25T14:22:54.127Z,53.90
2018-09-25T14:25:27.607Z,59.40
2018-09-25T14:28:01.118Z,58.10
2018-09-25T14:30:34.817Z,57.20
2018-09-25T14:33:08.423Z,55.60
2018-09-25T14:35:41.995Z,56.60
2018-09-25T14:38:15.400Z,58.40
2018-09-25T14:40:48.864Z,56.20
2018-09-25T14:43:22.471Z,55.30
2018-09-25T14:45:56.003Z,56.50
2018-09-25T14:48:29.391Z,55.30
2018-09-25T14:51:02.911Z,57.00
2018-09-25T14:53:36.407Z,59.40
2018-09-25T14:56:09.993Z,55.30
2018-09-25T14:58:43.672Z,57.20
2018-09-25T15:01:17.170Z,57.00
2018-09-25T15:03:50.674Z,55.70
2018-09-25T15:06:24.034Z,57.50
2018-09-25T15:08:57.703Z,57.60
2018-09-25T15:11:31.105Z,56.50
2018-09-25T15:14:04.617Z,56.80
2018-09-25T15:16:38.246Z,57.20
2018-09-25T15:19:11.855Z,57.30
2018-09-25T15:21:45.663Z,57.80
2018-09-25T15:24:18.965Z,58.80
2018-09-25T15:26:52.607Z,59.10
2018-09-25T15:29:26.163Z,56.60
2018-09-25T15:31:59.787Z,58.10
2018-09-25T15:34:33.243Z,59.00
2018-09-25T15:37:06.868Z,58.30
2018-09-25T15:39:40.436Z,58.50
2018-09-25T15:42:13.912Z,58.40
2018-09-25T15:44:47.416Z,59.00
2018-09-25T15:47:21.030Z,62.20
2018-09-25T15:49:54.688Z,60.00
2018-09-25T15:52:28.164Z,59.20
2018-09-25T15:55:01.842Z,60.80
2018-09-25T15:57:35.490Z,60.00
2018-09-25T16:00:08.999Z,61.10
2018-09-25T16:02:42.606Z,62.50
2018-09-25T16:05:16.223Z,63.80
2018-09-25T16:07:49.694Z,65.60
2018-09-25T16:10:23.347Z,65.20
2018-09-25T16:12:56.979Z,67.30
2018-09-25T16:15:30.572Z,67.80
2018-09-25T16:18:04.060Z,67.50
2018-09-25T16:20:37.416Z,71.00
2018-09-25T16:23:11.115Z,73.50
2018-09-25T16:25:44.843Z,73.30
2018-09-25T16:28:18.361Z,76.40
2018-09-25T16:30:51.873Z,76.70
2018-09-25T16:33:25.574Z,83.80
2018-09-25T16:36:00.640Z,90.80
2018-09-25T16:38:38.786Z,96.00
2018-09-25T16:41:12.508Z,95.60
2018-09-25T16:43:46.400Z,99.90
2018-09-25T16:46:19.898Z,94.90
2018-09-25T16:48:53.721Z,99.90
2018-09-25T16:51:27.891Z,99.90
2018-09-25T16:54:02.101Z,99.90
2018-09-25T16:56:37.507Z,99.90
2018-09-25T16:59:11.011Z,99.90
2018-09-25T17:01:44.810Z,99.90
2018-09-25T17:04:19.231Z,99.90
2018-09-25T17:06:55.178Z,99.90
2018-09-25T17:09:32.689Z,99.90
2018-09-25T17:12:06.182Z,99.90
2018-09-25T17:14:40.912Z,99.90
2018-09-25T17:17:14.598Z,99.90
2018-09-25T17:19:48.539Z,99.90
2018-09-25T17:22:22.170Z,99.90
2018-09-25T17:24:55.891Z,99.90
2018-09-25T17:27:29.543Z,99.90
2018-09-25T17:30:03.555Z,99.90
2018-09-25T17:32:37.100Z,99.90
2018-09-25T17:35:10.884Z,99.90
2018-09-25T17:37:44.586Z,99.90
2018-09-25T17:40:18.181Z,99.90
2018-09-25T17:42:51.685Z,99.90
2018-09-25T17:45:25.339Z,99.90
2018-09-25T17:48:04.516Z,99.90
2018-09-25T17:50:38.084Z,99.90
2018-09-25T17:53:12.641Z,99.90
2018-09-25T17:55:46.234Z,99.90
2018-09-25T17:58:21.283Z,99.90
2018-09-25T18:00:54.898Z,99.90
2018-09-25T18:03:32.033Z,99.90
2018-09-25T18:06:08.733Z,99.90
2018-09-25T18:08:42.303Z,99.90
2018-09-25T18:11:18.750Z,99.90
2018-09-25T18:13:52.147Z,99.90
2018-09-25T18:16:26.273Z,99.90
2018-09-25T18:19:00.295Z,99.90
2018-09-25T18:21:33.966Z,99.90
2018-09-25T18:24:07.458Z,99.90
2018-09-25T18:26:46.160Z,99.90
2018-09-25T18:29:19.722Z,99.90
2018-09-25T18:31:53.140Z,99.90
2018-09-25T18:34:30.268Z,99.90
2018-09-25T18:37:06.213Z,99.90
2018-09-25T18:39:39.919Z,99.90
2018-09-25T18:42:16.671Z,99.90
2018-09-25T18:44:50.835Z,99.90
2018-09-25T18:47:29.290Z,99.90
2018-09-25T18:50:05.292Z,99.90
2018-09-25T18:52:39.009Z,99.90
2018-09-25T18:55:12.475Z,99.90
2018-09-25T18:57:45.971Z,99.90
2018-09-25T19:00:19.656Z,99.90
2018-09-25T19:02:53.026Z,99.90
2018-09-25T19:05:26.818Z,99.90
2018-09-25T19:08:00.388Z,99.90
2018-09-25T19:10:33.788Z,99.90
2018-09-25T19:13:07.307Z,99.90
2018-09-25T19:15:40.835Z,99.90
2018-09-25T19:18:14.412Z,99.90
2018-09-25T19:20:48.013Z,99.90
2018-09-25T19:23:25.594Z,99.90
2018-09-25T19:25:59.244Z,99.90
2018-09-25T19:28:32.789Z,99.90
2018-09-25T19:31:06.402Z,99.90
2018-09-25T19:33:40.099Z,99.90
2018-09-25T19:36:23.508Z,99.90
2018-09-25T19:38:57.327Z,99.90
2018-09-25T19:41:31.003Z,99.90
2018-09-25T19:44:04.709Z,99.90
2018-09-25T19:46:38.199Z,99.90
2018-09-25T19:49:11.843Z,99.90
2018-09-25T19:51:45.359Z,99.90
2018-09-25T19:54:19.039Z,99.90
2018-09-25T19:56:52.620Z,99.90
2018-09-25T19:59:26.201Z,99.90
2018-09-25T20:01:59.858Z,99.90
2018-09-25T20:04:33.466Z,99.90
2018-09-25T20:07:06.956Z,99.90
2018-09-25T20:09:40.517Z,99.90
2018-09-25T20:12:14.171Z,99.90
2018-09-25T20:14:47.709Z,99.90
2018-09-25T20:17:21.388Z,99.90
2018-09-25T20:19:55.936Z,99.90
2018-09-25T20:22:29.593Z,99.90
2018-09-25T20:25:03.201Z,99.90
2018-09-25T20:27:36.650Z,99.90
2018-09-25T20:30:10.356Z,99.90
2018-09-25T20:32:43.853Z,99.90
2018-09-25T20:35:17.452Z,99.90
2018-09-25T20:37:50.909Z,99.90
2018-09-25T20:40:24.478Z,99.90
2018-09-25T20:42:58.157Z,99.90
2018-09-25T20:45:35.638Z,99.90
2018-09-25T20:48:09.247Z,99.90
2018-09-25T20:50:42.795Z,99.90
2018-09-25T20:53:16.583Z,99.90
2018-09-25T20:55:57.922Z,99.90
2018-09-25T20:58:31.632Z,99.90
2018-09-25T21:01:05.216Z,99.90
2018-09-25T21:03:38.724Z,99.90
2018-09-25T21:06:12.202Z,99.90
2018-09-25T21:08:45.863Z,99.90
2018-09-25T21:11:19.375Z,99.90
2018-09-25T21:13:52.990Z,99.90
2018-09-25T21:16:26.635Z,99.90
2018-09-25T21:19:00.254Z,99.90
2018-09-25T21:21:33.958Z,99.90
2018-09-25T21:24:07.559Z,99.90
2018-09-25T21:26:41.157Z,99.90
2018-09-25T21:29:14.981Z,99.90
2018-09-25T21:31:48.507Z,99.90
2018-09-25T21:34:22.141Z,99.90
2018-09-25T21:36:56.153Z,99.90
2018-09-25T21:39:29.737Z,99.90
2018-09-25T21:42:03.496Z,99.90
2018-09-25T21:44:37.163Z,99.90
2018-09-25T21:47:10.874Z,99.90
2018-09-25T21:49:44.390Z,99.90
2018-09-25T21:52:18.057Z,99.90
2018-09-25T21:54:51.699Z,99.90
2018-09-25T21:57:25.549Z,99.90
2018-09-25T21:59:58.797Z,99.90
2018-09-25T22:02:33.461Z,99.90
2018-09-25T22:05:07.098Z,99.90
2018-09-25T22:07:40.720Z,99.90
2018-09-25T22:10:14.401Z,99.90
2018-09-25T22:13:02.755Z,99.90
2018-09-25T22:15:43.129Z,99.90
2018-09-25T22:18:16.696Z,99.90
2018-09-25T22:20:50.261Z,99.90
2018-09-25T22:23:23.929Z,99.90
2018-09-25T22:25:57.532Z,99.90
2018-09-25T22:28:31.544Z,99.90
2018-09-25T22:31:05.231Z,99.90
2018-09-25T22:33:38.842Z,99.90
2018-09-25T22:36:12.479Z,99.90
2018-09-25T22:38:46.157Z,99.90
2018-09-25T22:41:19.803Z,99.90
2018-09-25T22:43:53.469Z,99.90
2018-09-25T22:46:27.090Z,99.90
2018-09-25T22:49:00.750Z,99.90
2018-09-25T22:51:38.501Z,99.90
2018-09-25T22:54:12.092Z,99.90
2018-09-25T22:56:45.725Z,99.90
2018-09-25T22:59:19.248Z,99.90
2018-09-25T23:01:52.887Z,99.90
2018-09-25T23:04:26.517Z,99.90
2018-09-25T23:07:00.247Z,99.90
2018-09-25T23:09:33.923Z,99.90
2018-09-25T23:12:07.581Z,99.90
2018-09-25T23:14:47.188Z,99.90
2018-09-25T23:17:20.805Z,99.90
2018-09-25T23:19:54.474Z,99.90
2018-09-25T23:22:28.075Z,99.90
2018-09-25T23:25:01.577Z,99.90
2018-09-25T23:27:34.954Z,99.90
2018-09-25T23:30:08.680Z,99.90
2018-09-25T23:32:42.295Z,99.90
2018-09-25T23:35:25.031Z,99.90
2018-09-25T23:37:58.467Z,99.90
2018-09-25T23:40:30.922Z,99.90
2018-09-25T23:43:07.327Z,99.90
2018-09-25T23:45:39.768Z,99.90
2018-09-25T23:48:31.470Z,99.90
2018-09-25T23:51:07.247Z,99.90
2018-09-25T23:53:41.559Z,99.90
2018-09-25T23:56:33.567Z,99.90
2018-09-25T23:59:09.446Z,99.90
